Time;durP1;ratioP1;P1;durP2;ratioP2;P2;SDS_P1;SDS_P2;PMS_P1;PMS_P2;Temp;Humidity;BMP_temperature;BMP_pressure;BME280_temperature;BME280_humidity;BME280_pressure;Samples;Min_cycle;Max_cycle;Signal;HPM_P1;HPM_P2
2024/03/02 00:02:31;;;;;;;66.00;31.70;;;;;;;-5.70;100.00;140895.20;106734;1279;24415;-68
2024/03/02 00:05:20;;;;;;;53.50;29.20;;;;;;;-5.70;100.00;140895.22;106772;1278;25338;-63
2024/03/02 00:08:07;;;;;;;55.70;29.00;;;;;;;-5.71;100.00;140892.47;106756;1262;25324;-72
2024/03/02 00:10:58;;;;;;;57.20;31.40;;;;;;;-5.72;100.00;140889.53;106724;1269;25366;-75
2024/03/02 00:13:45;;;;;;;57.20;32.30;;;;;;;-5.72;100.00;140890.03;106775;1272;25416;-75
2024/03/02 00:16:32;;;;;;;62.20;31.00;;;;;;;-5.74;100.00;140885.08;106764;1263;24402;-71
2024/03/02 00:19:18;;;;;;;51.00;29.10;;;;;;;-5.76;100.00;140879.88;106709;1267;25416;-70
2024/03/02 00:22:04;;;;;;;53.10;29.00;;;;;;;-5.79;100.00;140872.22;106905;1262;25532;-70
2024/03/02 00:24:49;;;;;;;62.30;30.80;;;;;;;-5.81;100.00;140866.03;106698;1273;25334;-70
2024/03/02 00:27:35;;;;;;;58.80;32.10;;;;;;;-5.85;100.00;140857.88;106724;1276;25393;-70
2024/03/02 00:30:36;;;;;;;53.80;31.60;;;;;;;-5.89;100.00;140848.23;106719;1271;25496;-69
2024/03/02 00:33:23;;;;;;;58.10;32.80;;;;;;;-5.94;100.00;140837.41;106782;1262;25373;-70
2024/03/02 00:36:10;;;;;;;56.10;31.30;;;;;;;-5.96;100.00;140830.97;106707;1270;25382;-67
2024/03/02 00:38:56;;;;;;;54.20;28.50;;;;;;;-5.98;100.00;140827.28;106710;1270;25374;-70
2024/03/02 00:41:43;;;;;;;54.80;29.70;;;;;;;-6.00;100.00;140822.06;106698;1278;25366;-70
2024/03/02 00:44:35;;;;;;;58.00;30.30;;;;;;;-6.01;100.00;140819.58;106771;1269;25373;-64
2024/03/02 00:47:20;;;;;;;57.60;31.20;;;;;;;-6.04;100.00;140810.70;106715;1272;25465;-69
2024/03/02 00:50:08;;;;;;;57.40;30.80;;;;;;;-6.08;100.00;140801.80;106719;1269;25408;-65
2024/03/02 00:53:05;;;;;;;52.00;29.20;;;;;;;-6.14;100.00;140788.70;106762;1274;25370;-70
2024/03/02 00:55:51;;;;;;;53.10;29.90;;;;;;;-6.18;100.00;140779.55;106771;1271;25355;-72
2024/03/02 00:58:38;;;;;;;56.60;31.90;;;;;;;-6.20;100.00;140774.34;106680;1262;25487;-68
2024/03/02 01:01:23;;;;;;;52.70;29.30;;;;;;;-6.23;100.00;140764.97;106793;1268;25590;-71
2024/03/02 01:04:09;;;;;;;57.40;30.90;;;;;;;-6.28;100.00;140754.09;106744;1269;25337;-73
2024/03/02 01:06:55;;;;;;;52.90;29.20;;;;;;;-6.30;100.00;140749.16;106722;1263;25366;-77
2024/03/02 01:09:41;;;;;;;53.20;30.00;;;;;;;-6.33;100.00;140742.25;106729;1262;25393;-76
2024/03/02 01:12:27;;;;;;;58.50;30.70;;;;;;;-6.36;100.00;140736.56;106768;1269;25386;-67
2024/03/02 01:15:13;;;;;;;62.70;33.20;;;;;;;-6.37;100.00;140731.36;106705;1262;25365;-68
2024/03/02 01:17:58;;;;;;;60.50;32.90;;;;;;;-6.39;100.00;140727.16;106718;1269;25381;-73
2024/03/02 01:20:43;;;;;;;52.30;31.40;;;;;;;-6.43;100.00;140716.78;106728;1271;25437;-70
2024/03/02 01:23:29;;;;;;;57.20;29.80;;;;;;;-6.47;100.00;140708.64;106729;1265;25412;-68
2024/03/02 01:26:14;;;;;;;57.10;29.10;;;;;;;-6.49;100.00;140703.42;106644;1277;25495;-67
2024/03/02 01:29:00;;;;;;;52.60;28.90;;;;;;;-6.48;100.00;140705.17;106640;1275;25404;-68
2024/03/02 01:31:46;;;;;;;70.70;31.40;;;;;;;-6.50;100.00;140701.72;106663;1280;25358;-66
2024/03/02 01:34:31;;;;;;;62.50;31.60;;;;;;;-6.52;100.00;140695.28;106631;1276;25355;-68
2024/03/02 01:37:17;;;;;;;49.50;29.10;;;;;;;-6.55;100.00;140688.88;106702;1270;25798;-73
2024/03/02 01:40:08;;;;;;;55.20;28.00;;;;;;;-6.59;100.00;140678.98;106668;1279;25495;-66
2024/03/02 01:42:55;;;;;;;53.20;27.50;;;;;;;-6.62;100.00;140671.31;106674;1279;25498;-71
2024/03/02 01:45:41;;;;;;;57.60;29.00;;;;;;;-6.63;100.00;140668.38;106657;1279;25345;-71
2024/03/02 01:48:27;;;;;;;51.10;28.20;;;;;;;-6.66;100.00;140662.17;106670;1261;25490;-73
2024/03/02 01:51:12;;;;;;;54.60;30.10;;;;;;;-6.70;100.00;140652.55;106682;1269;25453;-69
2024/03/02 01:53:58;;;;;;;48.80;28.40;;;;;;;-6.71;100.00;140649.34;106640;1279;25363;-73
2024/03/02 01:56:45;;;;;;;60.70;29.50;;;;;;;-6.73;100.00;140646.13;106671;1275;25396;-69
2024/03/02 01:59:30;;;;;;;54.50;29.50;;;;;;;-6.72;100.00;140647.84;106666;1270;25558;-68
2024/03/02 02:02:16;;;;;;;53.40;30.20;;;;;;;-6.73;100.00;140643.91;106625;1269;25417;-66
2024/03/02 02:05:03;;;;;;;49.00;27.80;;;;;;;-6.75;100.00;140639.69;106660;1280;25339;-71
2024/03/02 02:07:49;;;;;;;52.30;27.90;;;;;;;-6.77;100.00;140636.25;106663;1274;25408;-71
2024/03/02 02:10:36;;;;;;;52.70;28.80;;;;;;;-6.79;100.00;140632.30;106647;1269;25356;-67
2024/03/02 02:13:21;;;;;;;48.80;27.60;;;;;;;-6.79;100.00;140631.56;106660;1278;24617;-68
2024/03/02 02:16:08;;;;;;;49.90;27.70;;;;;;;-6.81;100.00;140628.09;106745;1273;23882;-70
2024/03/02 02:18:53;;;;;;;49.20;27.90;;;;;;;-6.81;100.00;140626.86;106816;1271;25349;-68
2024/03/02 02:21:42;;;;;;;55.00;30.50;;;;;;;-6.84;100.00;140618.95;106586;1270;25338;-69
2024/03/02 02:24:28;;;;;;;63.30;34.00;;;;;;;-6.88;100.00;140610.08;106643;1279;25345;-68
2024/03/02 02:27:15;;;;;;;60.90;34.00;;;;;;;-6.89;100.00;140607.34;106596;1275;25359;-68
2024/03/02 02:30:02;;;;;;;50.90;30.40;;;;;;;-6.88;100.00;140609.33;106289;1278;25346;-71
2024/03/02 02:32:48;;;;;;;57.20;31.30;;;;;;;-6.87;100.00;140612.05;106671;1279;25349;-66
2024/03/02 02:35:35;;;;;;;49.90;31.00;;;;;;;-6.87;100.00;140612.78;106628;1270;25373;-70
2024/03/02 02:38:20;;;;;;;63.00;33.70;;;;;;;-6.90;100.00;140605.38;106659;1269;25460;-71
2024/03/02 02:41:07;;;;;;;55.10;30.90;;;;;;;-6.97;100.00;140587.34;106647;1278;25362;-69
2024/03/02 02:43:52;;;;;;;51.90;28.20;;;;;;;-7.01;100.00;140577.95;106695;1277;25497;-67
2024/03/02 02:46:38;;;;;;;55.90;29.90;;;;;;;-7.03;100.00;140571.78;106687;1279;25429;-70
2024/03/02 02:49:24;;;;;;;60.40;31.70;;;;;;;-7.06;100.00;140565.84;106677;1272;25338;-72
2024/03/02 02:52:10;;;;;;;51.00;29.70;;;;;;;-7.10;100.00;140554.75;106692;1266;22671;-70
2024/03/02 02:54:55;;;;;;;48.90;28.60;;;;;;;-7.13;100.00;140548.31;106720;1269;25355;-67
2024/03/02 02:57:43;;;;;;;55.40;28.50;;;;;;;-7.15;100.00;140542.16;106722;1269;25489;-70
2024/03/02 03:00:30;;;;;;;63.30;32.80;;;;;;;-7.17;100.00;140537.94;106675;1273;25428;-68
2024/03/02 03:03:15;;;;;;;54.50;30.40;;;;;;;-7.17;100.00;140537.45;106693;1277;25419;-68
2024/03/02 03:06:02;;;;;;;50.40;30.40;;;;;;;-7.21;100.00;140530.80;106662;1274;25953;-69
2024/03/02 03:08:47;;;;;;;59.30;31.70;;;;;;;-7.24;100.00;140522.39;106666;1277;25367;-73
2024/03/02 03:11:33;;;;;;;54.10;28.80;;;;;;;-7.28;100.00;140513.75;106732;1273;25413;-68
2024/03/02 03:14:19;;;;;;;57.90;29.10;;;;;;;-7.28;100.00;140513.98;106792;1276;25327;-72
2024/03/02 03:17:06;;;;;;;61.50;29.70;;;;;;;-7.29;100.00;140511.53;106779;1271;25324;-67
2024/03/02 03:19:52;;;;;;;62.00;32.00;;;;;;;-7.27;100.00;140515.75;106729;1272;25357;-70
2024/03/02 03:22:38;;;;;;;58.80;30.30;;;;;;;-7.27;100.00;140515.75;106715;1277;23987;-73
2024/03/02 03:25:23;;;;;;;65.10;29.70;;;;;;;-7.26;100.00;140517.70;106645;1269;25810;-72
2024/03/02 03:28:09;;;;;;;55.30;30.30;;;;;;;-7.24;100.00;140522.16;106704;1271;24359;-67
2024/03/02 03:30:55;;;;;;;51.30;30.50;;;;;;;-7.21;100.00;140530.78;106766;1279;25374;-67
2024/03/02 03:33:41;;;;;;;60.20;29.60;;;;;;;-7.21;100.00;140529.80;106734;1280;25358;-66
2024/03/02 03:36:26;;;;;;;62.40;33.10;;;;;;;-7.21;100.00;140529.80;106680;1280;25477;-69
2024/03/02 03:39:12;;;;;;;68.60;30.00;;;;;;;-7.19;100.00;140534.72;106690;1279;25468;-68
2024/03/02 03:41:57;;;;;;;59.20;32.00;;;;;;;-7.18;100.00;140536.22;106727;1269;25397;-68
2024/03/02 03:44:43;;;;;;;63.50;34.80;;;;;;;-7.20;100.00;140532.03;106738;1279;25341;-70
2024/03/02 03:47:29;;;;;;;63.30;34.00;;;;;;;-7.23;100.00;140524.61;106692;1270;25417;-68
2024/03/02 03:50:14;;;;;;;65.40;35.30;;;;;;;-7.27;100.00;140514.50;106754;1270;25498;-68
2024/03/02 03:53:00;;;;;;;68.40;36.60;;;;;;;-7.31;100.00;140505.38;106748;1275;25367;-70
2024/03/02 03:55:46;;;;;;;79.00;37.90;;;;;;;-7.37;100.00;140491.05;106754;1270;25337;-67
2024/03/02 03:58:32;;;;;;;65.80;36.90;;;;;;;-7.43;100.00;140475.98;106718;1272;25353;-69
2024/03/02 04:01:18;;;;;;;66.50;36.10;;;;;;;-7.47;100.00;140467.09;106697;1277;25398;-67
2024/03/02 04:04:04;;;;;;;65.70;36.10;;;;;;;-7.52;100.00;140454.00;106703;1274;25471;-70
2024/03/02 04:06:50;;;;;;;64.50;34.40;;;;;;;-7.57;100.00;140441.42;106766;1275;25492;-67
2024/03/02 04:09:35;;;;;;;66.20;36.20;;;;;;;-7.63;100.00;140427.84;106778;1274;25454;-68
2024/03/02 04:12:22;;;;;;;63.70;34.90;;;;;;;-7.71;100.00;140410.33;106766;1269;25224;-69
2024/03/02 04:15:08;;;;;;;64.20;34.60;;;;;;;-7.78;100.00;140393.55;106731;1277;25382;-67
2024/03/02 04:17:53;;;;;;;64.20;34.90;;;;;;;-7.84;100.00;140378.75;106832;1273;25358;-70
2024/03/02 04:20:39;;;;;;;65.70;34.60;;;;;;;-7.89;100.00;140365.91;106781;1271;23341;-69
2024/03/02 04:23:26;;;;;;;63.70;35.00;;;;;;;-7.94;100.00;140352.59;106778;1279;25411;-68
2024/03/02 04:26:11;;;;;;;60.30;35.30;;;;;;;-7.97;100.00;140344.92;106787;1270;25350;-70
2024/03/02 04:28:57;;;;;;;61.20;35.00;;;;;;;-7.97;100.00;140346.16;106688;1278;25427;-68
2024/03/02 04:31:42;;;;;;;60.20;33.90;;;;;;;-7.97;100.00;140346.41;106728;1276;25438;-67
2024/03/02 04:34:28;;;;;;;59.50;32.80;;;;;;;-7.97;100.00;140346.89;106873;1280;23280;-69
2024/03/02 04:37:14;;;;;;;60.80;33.10;;;;;;;-7.98;100.00;140343.70;106646;1271;25338;-69
2024/03/02 04:40:00;;;;;;;58.70;32.00;;;;;;;-7.99;100.00;140342.45;106718;1279;25435;-71
2024/03/02 04:42:45;;;;;;;55.00;30.90;;;;;;;-8.00;100.00;140339.25;106793;1267;25410;-67
2024/03/02 04:45:31;;;;;;;54.00;31.50;;;;;;;-8.03;100.00;140330.88;106722;1267;25424;-68
2024/03/02 04:48:17;;;;;;;52.80;32.20;;;;;;;-8.02;100.00;140334.30;106747;1270;25412;-69
2024/03/02 04:51:03;;;;;;;56.30;30.20;;;;;;;-8.03;100.00;140331.61;106754;1270;25499;-67
2024/03/02 04:53:49;;;;;;;59.10;32.70;;;;;;;-8.05;100.00;140327.66;106662;1260;25462;-68
2024/03/02 04:56:44;;;;;;;58.70;32.40;;;;;;;-7.96;100.00;140348.88;106753;1270;25366;-68
2024/03/02 04:59:30;;;;;;;60.40;33.70;;;;;;;-7.74;100.00;140400.95;106782;1263;22526;-71
2024/03/02 05:02:15;;;;;;;57.40;33.90;;;;;;;-7.48;100.00;140463.39;106709;1257;25386;-66
2024/03/02 05:05:01;;;;;;;60.20;35.10;;;;;;;-7.13;100.00;140549.05;106745;1261;25425;-70
2024/03/02 05:07:47;;;;;;;61.00;32.40;;;;;;;-6.83;100.00;140621.17;106708;1273;25407;-71
2024/03/02 05:10:33;;;;;;;55.60;30.50;;;;;;;-6.44;100.00;140715.30;106700;1277;25400;-65
2024/03/02 05:13:20;;;;;;;59.60;34.70;;;;;;;-6.07;100.00;140804.03;106789;1273;25366;-69
2024/03/02 05:16:06;;;;;;;68.90;31.90;;;;;;;-5.60;100.00;140918.47;106665;1264;25411;-65
2024/03/02 05:18:52;;;;;;;62.10;34.80;;;;;;;-5.32;100.00;140986.47;106867;1257;25349;-73
2024/03/02 05:21:38;;;;;;;67.00;35.20;;;;;;;-5.11;100.00;141037.70;106698;1270;25338;-73
2024/03/02 05:24:27;;;;;;;73.70;35.00;;;;;;;-4.75;100.00;141124.53;106709;1267;25362;-74
2024/03/02 05:27:12;;;;;;;56.10;32.10;;;;;;;-4.37;100.00;141216.38;106643;1263;25343;-70
2024/03/02 05:29:59;;;;;;;57.70;32.50;;;;;;;-4.08;100.00;141286.45;106725;1269;23795;-70
2024/03/02 05:32:44;;;;;;;59.50;32.80;;;;;;;-3.56;100.00;141410.83;106721;1267;24257;-67
2024/03/02 05:35:30;;;;;;;56.30;32.80;;;;;;;-3.15;100.00;141510.94;106679;1268;25343;-74
2024/03/02 05:38:15;;;;;;;65.20;33.70;;;;;;;-2.99;100.00;141548.84;106721;1258;25396;-74
2024/03/02 05:41:02;;;;;;;58.10;35.10;;;;;;;-2.72;98.85;141614.08;106671;1267;25340;-68
2024/03/02 05:43:48;;;;;;;66.30;34.90;;;;;;;-2.22;95.74;141736.34;106844;1277;25366;-70
2024/03/02 05:46:33;;;;;;;64.70;35.10;;;;;;;-1.82;91.30;141832.38;106730;1267;25348;-74
2024/03/02 05:49:22;;;;;;;71.20;37.70;;;;;;;-1.55;87.80;141897.66;106706;1279;25363;-71
2024/03/02 05:52:07;;;;;;;60.10;36.20;;;;;;;-1.05;81.63;142020.05;106683;1264;25440;-71
2024/03/02 05:54:52;;;;;;;56.00;33.30;;;;;;;-0.38;76.20;142182.78;106722;1261;25365;-67
2024/03/02 05:57:49;;;;;;;55.10;32.80;;;;;;;0.17;72.77;142316.28;106685;1267;25554;-69
2024/03/02 06:00:35;;;;;;;61.40;33.80;;;;;;;0.78;68.36;142463.75;106724;1264;25364;-69
2024/03/02 06:03:21;;;;;;;53.60;32.50;;;;;;;1.10;65.68;142541.84;106388;1273;25337;-70
2024/03/02 06:06:06;;;;;;;61.20;33.20;;;;;;;1.45;63.99;142627.22;106756;1270;25486;-70
2024/03/02 06:08:53;;;;;;;61.90;35.40;;;;;;;1.30;61.78;142590.91;106721;1271;25348;-69
2024/03/02 06:11:40;;;;;;;58.50;35.20;;;;;;;0.91;62.23;142496.08;106799;1271;25533;-67
2024/03/02 06:14:26;;;;;;;62.20;36.10;;;;;;;1.03;62.77;142525.92;106780;1279;25443;-70
2024/03/02 06:17:14;;;;;;;57.10;35.40;;;;;;;1.40;60.55;142616.02;106758;1272;25536;-69
2024/03/02 06:19:59;;;;;;;61.60;35.60;;;;;;;1.92;59.19;142742.50;106687;1267;25358;-73
2024/03/02 06:22:45;;;;;;;58.80;34.70;;;;;;;2.74;56.49;142940.78;106691;1273;25408;-68
2024/03/02 06:25:31;;;;;;;56.00;36.50;;;;;;;3.30;54.38;143077.88;106634;1270;25400;-73
2024/03/02 06:28:17;;;;;;;54.00;33.40;;;;;;;4.02;52.17;143252.70;106598;1270;25398;-71
2024/03/02 06:31:03;;;;;;;47.90;30.90;;;;;;;4.33;50.80;143328.05;106597;1272;25412;-69
2024/03/02 06:33:48;;;;;;;51.50;31.60;;;;;;;4.96;47.66;143481.31;106559;1270;25441;-69
2024/03/02 06:36:34;;;;;;;49.10;32.90;;;;;;;4.93;46.49;143474.83;106547;1268;25383;-68
2024/03/02 06:39:20;;;;;;;51.70;33.10;;;;;;;5.04;46.61;143502.30;106426;1273;25363;-71
2024/03/02 06:42:06;;;;;;;57.80;33.30;;;;;;;5.24;45.43;143551.48;106675;1278;25324;-70
2024/03/02 06:44:51;;;;;;;50.30;31.40;;;;;;;5.37;44.58;143582.22;106620;1270;25525;-69
2024/03/02 06:47:37;;;;;;;55.40;34.80;;;;;;;5.26;44.77;143555.73;106632;1271;25358;-73
2024/03/02 06:50:23;;;;;;;56.50;32.30;;;;;;;5.08;44.70;143510.03;106655;1270;23318;-66
2024/03/02 06:53:08;;;;;;;48.10;30.00;;;;;;;5.25;44.73;143552.48;106575;1270;25362;-72
2024/03/02 06:55:54;;;;;;;46.20;29.80;;;;;;;5.73;43.35;143671.16;106644;1268;25370;-72
2024/03/02 06:58:39;;;;;;;48.50;28.30;;;;;;;5.93;43.52;143719.16;106647;1270;25414;-66
2024/03/02 07:01:26;;;;;;;43.30;25.90;;;;;;;7.45;41.29;144090.00;106610;1279;25454;-70
2024/03/02 07:04:12;;;;;;;40.40;25.30;;;;;;;8.27;38.31;144291.97;106621;1270;25338;-68
2024/03/02 07:06:58;;;;;;;42.50;24.80;;;;;;;8.07;37.73;144242.41;106676;1270;25325;-69
2024/03/02 07:09:43;;;;;;;39.50;24.60;;;;;;;7.84;38.35;144184.84;106612;1273;25363;-68
2024/03/02 07:12:29;;;;;;;39.20;24.00;;;;;;;7.97;37.14;144217.86;106650;1270;25426;-65
2024/03/02 07:18:13;;;;;;;32.90;23.30;;;;;;;6.01;39.60;143738.41;106798;1270;25356;-69
2024/03/02 07:21:00;;;;;;;34.90;22.60;;;;;;;5.30;41.00;143566.22;106764;1263;22537;-70
2024/03/02 07:23:46;;;;;;;34.40;22.60;;;;;;;4.74;42.33;143428.41;106665;1272;25353;-71
2024/03/02 07:26:32;;;;;;;36.50;23.20;;;;;;;5.00;42.39;143491.56;106704;1267;25371;-73
2024/03/02 07:29:20;;;;;;;37.90;22.80;;;;;;;5.66;41.32;143652.41;106757;1270;25451;-74
2024/03/02 07:32:08;;;;;;;38.70;24.40;;;;;;;5.23;41.35;143549.48;106777;1270;25356;-72
2024/03/02 07:34:53;;;;;;;36.30;21.30;;;;;;;5.24;41.64;143550.48;106810;1257;25463;-73
2024/03/02 07:37:39;;;;;;;34.50;21.70;;;;;;;6.07;41.23;143752.66;106684;1267;25349;-69
2024/03/02 07:40:28;;;;;;;35.00;22.30;;;;;;;7.49;39.47;144100.75;106764;1272;24218;-65
2024/03/02 07:43:14;;;;;;;31.20;20.90;;;;;;;8.62;37.47;144378.16;106867;1270;25376;-66
2024/03/02 07:45:59;;;;;;;30.30;21.80;;;;;;;9.62;35.55;144620.69;106997;1258;22586;-67
2024/03/02 07:48:45;;;;;;;30.30;20.90;;;;;;;10.13;34.19;144745.80;106820;1264;24293;-67
2024/03/02 07:51:31;;;;;;;29.40;19.70;;;;;;;10.13;33.71;144748.06;106699;1269;25435;-65
2024/03/02 07:54:16;;;;;;;31.50;20.60;;;;;;;10.32;33.17;144791.97;106685;1271;25366;-68
2024/03/02 07:57:01;;;;;;;32.50;19.60;;;;;;;10.24;33.03;144773.91;106709;1270;25380;-74
2024/03/02 07:59:47;;;;;;;27.70;19.20;;;;;;;9.86;33.68;144680.34;106720;1270;25440;-71
2024/03/02 08:02:33;;;;;;;27.70;19.50;;;;;;;10.37;33.14;144805.02;106804;1279;25448;-68
2024/03/02 08:05:21;;;;;;;27.70;19.50;;;;;;;10.78;32.59;144905.36;106898;1260;25341;-72
2024/03/02 08:08:07;;;;;;;33.30;19.70;;;;;;;10.77;31.94;144903.38;106716;1273;25348;-66
2024/03/02 08:10:52;;;;;;;26.80;19.20;;;;;;;10.31;32.20;144789.72;106714;1270;25366;-72
2024/03/02 08:13:38;;;;;;;28.20;19.30;;;;;;;10.10;32.74;144738.53;106676;1271;25429;-71
2024/03/02 08:16:25;;;;;;;29.50;18.50;;;;;;;9.90;32.71;144690.89;106663;1267;25351;-75
2024/03/02 08:19:11;;;;;;;27.40;18.90;;;;;;;9.41;33.17;144571.33;106684;1269;25366;-68
2024/03/02 08:21:59;;;;;;;28.20;19.10;;;;;;;8.41;34.25;144325.05;106672;1269;25366;-66
2024/03/02 08:24:45;;;;;;;28.80;19.00;;;;;;;7.47;35.91;144095.72;106634;1277;25373;-71
2024/03/02 08:27:32;;;;;;;31.80;20.40;;;;;;;7.55;36.12;144116.03;106660;1265;25363;-71
2024/03/02 08:30:18;;;;;;;30.00;19.60;;;;;;;8.06;35.67;144240.91;106644;1270;22635;-74
2024/03/02 08:33:05;;;;;;;31.30;19.80;;;;;;;8.17;34.73;144265.92;106673;1265;25358;-75
2024/03/02 08:35:51;;;;;;;29.10;18.90;;;;;;;7.19;36.14;144026.42;106637;1268;25467;-77
2024/03/02 08:38:37;;;;;;;33.10;20.00;;;;;;;7.17;36.50;144020.92;106645;1270;25338;-74
2024/03/02 08:41:23;;;;;;;31.80;19.80;;;;;;;7.27;36.20;144046.20;106509;1270;25418;-76
2024/03/02 08:44:09;;;;;;;30.90;19.50;;;;;;;7.14;36.33;144014.92;106308;1269;25340;-68
2024/03/02 08:46:56;;;;;;;29.10;17.80;;;;;;;6.11;37.28;143762.63;106583;1267;25351;-68
2024/03/02 08:49:41;;;;;;;27.80;18.40;;;;;;;4.33;39.99;143328.83;106651;1269;25359;-72
2024/03/02 08:52:27;;;;;;;30.70;20.20;;;;;;;3.04;43.07;143015.55;106640;1266;25798;-73
2024/03/02 08:55:13;;;;;;;29.10;20.60;;;;;;;3.10;43.73;143029.03;106641;1270;25337;-72
2024/03/02 08:57:59;;;;;;;33.20;19.20;;;;;;;3.40;43.34;143102.30;106650;1268;26004;-69
2024/03/02 09:00:47;;;;;;;28.40;18.60;;;;;;;3.40;43.51;143102.06;106584;1269;25392;-73
2024/03/02 09:03:35;;;;;;;34.00;20.50;;;;;;;3.25;43.78;143065.16;106663;1270;25417;-71
2024/03/02 09:06:21;;;;;;;35.80;21.50;;;;;;;2.70;44.66;142932.05;106631;1261;25416;-69
2024/03/02 09:09:07;;;;;;;31.90;20.80;;;;;;;1.94;46.62;142746.75;106588;1278;25414;-73
2024/03/02 09:11:54;;;;;;;31.80;20.00;;;;;;;1.42;47.99;142619.98;106644;1270;25396;-71
2024/03/02 09:14:41;;;;;;;32.60;19.00;;;;;;;1.19;48.61;142564.53;106624;1258;25490;-73
2024/03/02 09:17:27;;;;;;;32.80;17.70;;;;;;;0.96;49.30;142508.78;106621;1270;26654;-71
2024/03/02 09:20:13;;;;;;;30.60;17.20;;;;;;;0.54;50.09;142406.78;106601;1271;25483;-72
2024/03/02 09:22:59;;;;;;;28.20;16.60;;;;;;;0.07;51.21;142291.16;106588;1279;26560;-73
2024/03/02 09:25:45;;;;;;;36.40;17.20;;;;;;;-0.33;52.53;142196.20;106621;1270;26513;-74
2024/03/02 09:28:30;;;;;;;28.70;17.60;;;;;;;-0.69;54.26;142107.00;106638;1269;25398;-68
2024/03/02 09:31:16;;;;;;;30.30;19.50;;;;;;;-0.88;54.90;142061.03;106628;1279;25363;-72
2024/03/02 09:34:01;;;;;;;33.90;18.30;;;;;;;-0.98;56.08;142036.45;106648;1267;25373;-68
2024/03/02 09:36:47;;;;;;;32.50;18.80;;;;;;;-1.00;56.00;142032.72;106656;1259;25511;-72
2024/03/02 09:39:34;;;;;;;31.30;19.00;;;;;;;-0.87;55.69;142063.28;106542;1262;137204;-73
2024/03/02 09:42:20;;;;;;;37.60;18.90;;;;;;;-0.89;56.16;142058.08;106627;1259;25489;-70
2024/03/02 09:45:10;;;;;;;29.70;18.60;;;;;;;-1.07;56.67;142014.33;106649;1270;25427;-71
2024/03/02 09:47:58;;;;;;;36.40;20.40;;;;;;;-0.98;57.06;142036.22;106627;1270;25373;-69
2024/03/02 09:50:44;;;;;;;34.20;21.90;;;;;;;-0.99;56.84;142034.72;106596;1265;25402;-72
2024/03/02 09:53:33;;;;;;;34.50;21.10;;;;;;;-1.07;57.37;142014.58;106645;1270;25395;-73
2024/03/02 09:56:18;;;;;;;30.00;20.10;;;;;;;-1.02;57.15;142026.02;106635;1262;25348;-73
2024/03/02 09:59:07;;;;;;;32.50;19.60;;;;;;;-0.91;57.07;142055.08;106612;1279;25345;-70
2024/03/02 10:02:01;;;;;;;32.60;20.40;;;;;;;-0.74;56.33;142095.56;106662;1271;25351;-76
2024/03/02 10:04:49;;;;;;;32.20;20.00;;;;;;;-0.69;56.16;142106.75;106677;1270;25533;-71
2024/03/02 10:07:34;;;;;;;36.70;21.60;;;;;;;-0.50;56.05;142153.22;106721;1270;25419;-71
2024/03/02 10:10:21;;;;;;;33.90;20.90;;;;;;;-0.41;55.01;142176.08;106744;1269;25586;-73
2024/03/02 10:13:09;;;;;;;30.40;20.30;;;;;;;-0.52;55.13;142147.48;106648;1268;25348;-74
2024/03/02 10:15:56;;;;;;;32.00;19.90;;;;;;;-0.44;55.38;142167.86;106679;1262;25348;-70
2024/03/02 10:18:42;;;;;;;30.10;19.00;;;;;;;-0.20;54.84;142227.77;106614;1260;24247;-74
2024/03/02 10:21:28;;;;;;;35.20;21.20;;;;;;;-0.03;54.22;142267.53;106638;1261;25360;-73
2024/03/02 10:24:14;;;;;;;36.10;20.30;;;;;;;0.06;53.96;142290.91;106619;1266;25421;-71
2024/03/02 10:27:00;;;;;;;35.50;20.70;;;;;;;0.07;54.08;142291.17;106651;1261;25494;-70
2024/03/02 10:29:47;;;;;;;36.90;21.00;;;;;;;-0.08;54.42;142254.09;106630;1270;25373;-70
2024/03/02 10:32:33;;;;;;;33.40;20.30;;;;;;;-0.10;54.57;142249.38;106638;1262;25428;-70
2024/03/02 10:35:20;;;;;;;35.00;21.60;;;;;;;0.05;54.26;142287.42;106614;1279;25357;-69
2024/03/02 10:38:06;;;;;;;33.20;21.40;;;;;;;0.01;54.48;142277.73;106651;1279;25425;-74
2024/03/02 10:40:52;;;;;;;32.10;21.70;;;;;;;0.09;54.29;142296.61;106641;1262;25358;-72
2024/03/02 10:43:38;;;;;;;35.20;21.50;;;;;;;0.21;53.44;142326.45;106667;1269;25363;-73
2024/03/02 10:46:29;;;;;;;36.50;22.10;;;;;;;0.35;52.88;142360.03;106633;1270;25440;-69
2024/03/02 10:49:15;;;;;;;37.70;21.40;;;;;;;0.40;52.80;142372.72;106654;1268;25348;-73
2024/03/02 10:52:02;;;;;;;38.70;21.70;;;;;;;0.38;52.01;142367.23;106933;1262;25338;-73
2024/03/02 10:54:48;;;;;;;38.90;22.90;;;;;;;0.22;52.26;142328.20;106661;1268;25532;-70
2024/03/02 10:57:50;;;;;;;38.40;22.10;;;;;;;0.11;52.30;142300.84;106668;1264;22661;-67
2024/03/02 11:00:39;;;;;;;39.90;23.00;;;;;;;0.12;52.63;142305.08;106622;1280;25340;-75
2024/03/02 11:03:25;;;;;;;42.00;24.10;;;;;;;0.07;52.79;142291.66;106658;1264;25349;-73
2024/03/02 11:06:13;;;;;;;34.90;23.20;;;;;;;0.05;53.03;142288.42;106652;1267;25429;-70
2024/03/02 11:09:03;;;;;;;38.70;24.60;;;;;;;0.28;53.19;142342.38;106645;1270;25360;-69
2024/03/02 11:11:59;;;;;;;35.00;23.30;;;;;;;0.56;53.16;142412.25;106650;1279;25482;-66
2024/03/02 11:14:46;;;;;;;37.80;23.00;;;;;;;0.64;52.74;142431.66;106615;1268;25349;-74
2024/03/02 11:17:31;;;;;;;32.20;22.10;;;;;;;0.67;52.65;142438.59;106604;1280;25340;-72
2024/03/02 11:20:18;;;;;;;34.10;20.80;;;;;;;0.78;52.58;142463.98;106610;1280;25490;-71
2024/03/02 11:23:09;;;;;;;31.50;20.80;;;;;;;0.94;52.02;142503.30;106591;1280;25346;-73
2024/03/02 11:26:15;;;;;;;33.10;20.20;;;;;;;0.81;51.80;142471.92;106630;1264;25337;-71
2024/03/02 11:29:03;;;;;;;33.80;17.90;;;;;;;0.71;52.66;142447.56;106585;1280;24237;-73
2024/03/02 11:32:01;;;;;;;30.00;18.40;;;;;;;0.85;52.18;142482.16;106619;1264;25728;-68
2024/03/02 11:34:49;;;;;;;28.20;16.30;;;;;;;0.91;52.05;142496.83;106627;1280;25401;-71
2024/03/02 11:37:35;;;;;;;32.40;15.40;;;;;;;0.64;51.46;142431.64;106614;1280;25428;-67
2024/03/02 11:40:22;;;;;;;25.90;15.50;;;;;;;0.44;51.42;142381.39;106633;1265;25367;-73
2024/03/02 11:43:09;;;;;;;28.60;16.50;;;;;;;0.39;52.06;142369.97;106620;1280;25416;-72
2024/03/02 11:46:00;;;;;;;25.70;15.20;;;;;;;0.54;51.50;142407.28;106677;1280;25341;-67
2024/03/02 11:48:46;;;;;;;28.00;15.30;;;;;;;0.77;50.75;142462.48;106623;1280;25361;-72
2024/03/02 11:51:34;;;;;;;31.20;16.40;;;;;;;0.64;49.52;142430.16;106622;1268;25399;-75
2024/03/02 11:54:20;;;;;;;29.40;15.70;;;;;;;0.66;50.34;142435.63;106639;1280;25340;-70
2024/03/02 11:57:08;;;;;;;26.60;16.10;;;;;;;0.64;48.80;142431.41;106609;1267;25524;-72
2024/03/02 11:59:55;;;;;;;25.20;15.00;;;;;;;0.48;49.19;142390.84;106629;1262;25364;-75
2024/03/02 12:02:44;;;;;;;33.50;16.70;;;;;;;0.31;49.86;142350.06;106655;1279;25385;-71
2024/03/02 12:05:32;;;;;;;31.80;15.50;;;;;;;0.14;50.66;142309.80;106660;1264;25366;-71
2024/03/02 12:08:18;;;;;;;28.20;15.50;;;;;;;0.19;51.18;142321.97;106618;1262;25376;-70
2024/03/02 12:11:04;;;;;;;35.90;16.40;;;;;;;0.17;51.78;142315.75;106605;1259;25393;-68
2024/03/02 12:13:54;;;;;;;32.20;17.30;;;;;;;0.33;52.01;142354.30;106641;1259;25466;-73
2024/03/02 12:16:44;;;;;;;27.70;14.10;;;;;;;0.56;52.03;142411.75;106652;1268;25501;-71
2024/03/02 12:19:32;;;;;;;23.40;14.10;;;;;;;0.81;51.68;142472.44;106655;1279;25489;-68
2024/03/02 12:22:17;;;;;;;22.60;13.90;;;;;;;0.99;51.42;142515.50;106628;1279;25415;-71
2024/03/02 12:25:03;;;;;;;30.00;15.80;;;;;;;0.95;51.66;142504.80;106629;1279;25363;-77
2024/03/02 12:27:52;;;;;;;24.40;14.00;;;;;;;0.88;52.15;142488.36;106598;1260;25434;-69
2024/03/02 12:30:37;;;;;;;21.00;13.00;;;;;;;0.95;52.31;142505.53;106597;1261;25569;-70
2024/03/02 12:33:24;;;;;;;22.80;14.40;;;;;;;0.93;52.81;142501.56;106674;1258;25428;-75